Arak, Arak Airport (OIHR)

NameArak Airport
CityArak
CountryIran (Islamic Republic of)
ICAOOIHR
IATAAJK
Altitude1658 m
CoordinatesGoogle Map
Live Air TrafficLiveATC.net
METAROIHR 181400Z 04008KT 9999 FEW040 33/09 Q1014
2019-06-18 14:00:00 Wind: North-Northeast (40°) 4.12 m/s - Visibility: > 10000 m - Temperature: 33 °C - Dew point: 9 °C - Humidity: 22.7% - Pressure: 1014 hPa

Sorry, no flights used the airport in this database.